Time,TemperatureF,DewpointF,PressureIn,WindDirection,WindDirectionDegrees,WindSpeedMPH,WindSpeedGustMPH,Humidity,HourlyPrecipIn,Conditions,Clouds,dailyrainin,SoftwareType,DateUTC
2013-03-30 08:22:00,48.0,39.0,30.00,North,0,0.0,4.0,71,0.00,,,-99.99,,2013-03-30 15:22:00,
2013-03-30 08:33:00,48.0,39.0,30.00,North,0,0.0,4.0,71,0.00,,,-99.99,,2013-03-30 15:33:00,
2013-03-30 08:43:00,48.0,39.0,30.00,North,0,0.0,4.0,71,0.00,,,-99.99,,2013-03-30 15:43:00,
2013-03-30 08:52:00,48.0,39.0,30.00,North,0,0.0,4.0,71,0.00,,,-99.99,,2013-03-30 15:52:00,
2013-03-30 09:23:00,56.0,47.0,30.01,North,-999,0.0,0.0,72,0.00,,,-99.99,,2013-03-30 16:23:00,
2013-03-30 09:32:00,56.0,47.0,30.01,North,-999,0.0,0.0,72,0.00,,,-99.99,,2013-03-30 16:32:00,
2013-03-30 09:42:00,56.0,47.0,30.01,North,-999,0.0,0.0,72,0.00,,,-99.99,,2013-03-30 16:42:00,
2013-03-30 09:52:00,56.0,47.0,30.01,North,-999,0.0,0.0,72,0.00,,,-99.99,,2013-03-30 16:52:00,
2013-03-30 10:22:00,62.0,48.0,30.01,ESE,120,3.0,7.0,61,0.00,,,-99.99,,2013-03-30 17:22:00,
2013-03-30 10:32:00,62.0,48.0,30.01,ESE,120,3.0,7.0,61,0.00,,,-99.99,,2013-03-30 17:32:00,
2013-03-30 10:42:00,62.0,48.0,30.01,ESE,120,3.0,7.0,61,0.00,,,-99.99,,2013-03-30 17:42:00,
2013-03-30 10:52:00,62.0,48.0,30.01,ESE,120,3.0,7.0,61,0.00,,,-99.99,,2013-03-30 17:52:00,
2013-03-30 11:22:00,65.0,43.0,30.01,West,260,5.0,10.0,45,0.00,,,-99.99,,2013-03-30 18:22:00,
2013-03-30 11:32:00,65.0,43.0,30.01,West,260,5.0,10.0,45,0.00,,,-99.99,,2013-03-30 18:32:00,
2013-03-30 11:42:00,65.0,43.0,30.01,West,260,5.0,10.0,45,0.00,,,-99.99,,2013-03-30 18:42:00,
2013-03-30 11:52:00,65.0,43.0,30.01,West,260,5.0,10.0,45,0.00,,,-99.99,,2013-03-30 18:52:00,
2013-03-30 12:22:00,68.0,44.0,30.02,North,0,0.0,14.0,42,0.00,,,-99.99,,2013-03-30 19:22:00,
2013-03-30 12:32:00,68.0,44.0,30.02,North,0,0.0,14.0,42,0.00,,,-99.99,,2013-03-30 19:32:00,
2013-03-30 12:42:00,68.0,44.0,30.02,North,0,0.0,14.0,42,0.00,,,-99.99,,2013-03-30 19:42:00,
2013-03-30 12:52:00,68.0,44.0,30.02,North,0,0.0,14.0,42,0.00,,,-99.99,,2013-03-30 19:52:00,
2013-03-30 13:22:00,67.0,47.0,30.00,WNW,300,7.0,12.0,49,0.00,,,-99.99,,2013-03-30 20:22:00,
2013-03-30 13:32:00,67.0,47.0,30.00,WNW,300,7.0,12.0,49,0.00,,,-99.99,,2013-03-30 20:32:00,
2013-03-30 13:42:00,67.0,47.0,30.00,WNW,300,7.0,12.0,49,0.00,,,-99.99,,2013-03-30 20:42:00,
2013-03-30 13:52:00,67.0,47.0,30.00,WNW,300,7.0,12.0,49,0.00,,,-99.99,,2013-03-30 20:52:00,
2013-03-30 14:22:00,69.0,48.0,29.99,West,280,8.0,15.0,48,0.00,,,-99.99,,2013-03-30 21:22:00,
2013-03-30 14:33:00,69.0,48.0,29.99,West,280,8.0,15.0,48,0.00,,,-99.99,,2013-03-30 21:33:00,
2013-03-30 14:43:00,69.0,48.0,29.99,West,280,8.0,15.0,48,0.00,,,-99.99,,2013-03-30 21:43:00,
2013-03-30 14:52:00,69.0,48.0,29.99,West,280,8.0,15.0,48,0.00,,,-99.99,,2013-03-30 21:52:00,
2013-03-30 15:23:00,69.0,50.0,29.98,West,280,10.0,17.0,50,0.00,,,-99.99,,2013-03-30 22:23:00,
2013-03-30 15:32:00,69.0,50.0,29.98,West,280,10.0,17.0,50,0.00,,,-99.99,,2013-03-30 22:32:00,
2013-03-30 15:43:00,69.0,50.0,29.98,West,280,10.0,17.0,50,0.00,,,-99.99,,2013-03-30 22:43:00,
2013-03-30 15:53:00,69.0,50.0,29.98,West,280,10.0,17.0,50,0.00,,,-99.99,,2013-03-30 22:53:00,
2013-03-30 16:22:00,68.0,52.0,29.96,West,280,3.0,14.0,56,0.00,,,-99.99,,2013-03-30 23:22:00,
2013-03-30 16:32:00,68.0,52.0,29.96,West,280,3.0,14.0,56,0.00,,,-99.99,,2013-03-30 23:32:00,
2013-03-30 16:42:00,68.0,52.0,29.96,West,280,3.0,14.0,56,0.00,,,-99.99,,2013-03-30 23:42:00,
2013-03-30 16:52:00,68.0,52.0,29.96,West,280,3.0,14.0,56,0.00,,,-99.99,,2013-03-30 23:52:00,
2013-03-30 17:22:00,66.0,50.0,29.95,West,280,4.0,12.0,57,0.00,,,-99.99,,2013-03-31 00:22:00,
2013-03-30 17:32:00,66.0,50.0,29.95,West,280,4.0,12.0,57,0.00,,,-99.99,,2013-03-31 00:32:00,
2013-03-30 17:42:00,66.0,50.0,29.95,West,280,4.0,12.0,57,0.00,,,-99.99,,2013-03-31 00:42:00,
2013-03-30 17:52:00,66.0,50.0,29.95,West,280,4.0,12.0,57,0.00,,,-99.99,,2013-03-31 00:52:00,
2013-03-30 18:22:00,64.0,48.0,29.95,WNW,290,3.0,9.0,57,0.00,,,-99.99,,2013-03-31 01:22:00,
2013-03-30 18:32:00,64.0,48.0,29.95,WNW,290,3.0,9.0,57,0.00,,,-99.99,,2013-03-31 01:32:00,
2013-03-30 18:42:00,64.0,48.0,29.95,WNW,290,3.0,9.0,57,0.00,,,-99.99,,2013-03-31 01:42:00,
2013-03-30 18:52:00,64.0,48.0,29.95,WNW,290,3.0,9.0,57,0.00,,,-99.99,,2013-03-31 01:52:00,
2013-03-30 19:22:00,59.0,48.0,29.96,North,0,0.0,5.0,66,0.00,,,-99.99,,2013-03-31 02:22:00,
2013-03-30 19:32:00,59.0,48.0,29.96,North,0,0.0,5.0,66,0.00,,,-99.99,,2013-03-31 02:32:00,
2013-03-30 19:42:00,59.0,48.0,29.96,North,0,0.0,5.0,66,0.00,,,-99.99,,2013-03-31 02:42:00,
2013-03-30 19:52:00,59.0,48.0,29.96,North,0,0.0,5.0,66,0.00,,,-99.99,,2013-03-31 02:52:00,
2013-03-30 20:22:00,54.0,47.0,29.97,North,-999,0.0,0.0,77,0.00,,,-99.99,,2013-03-31 03:22:00,
2013-03-30 20:33:00,54.0,47.0,29.97,North,-999,0.0,0.0,77,0.00,,,-99.99,,2013-03-31 03:33:00,
2013-03-30 20:43:00,54.0,47.0,29.97,North,-999,0.0,0.0,77,0.00,,,-99.99,,2013-03-31 03:43:00,
2013-03-30 20:53:00,54.0,47.0,29.97,North,-999,0.0,0.0,77,0.00,,,-99.99,,2013-03-31 03:53:00,
2013-03-30 21:23:00,50.0,44.0,29.98,North,0,0.0,4.0,81,0.00,,,-99.99,,2013-03-31 04:23:00,
2013-03-30 21:32:00,50.0,44.0,29.98,North,0,0.0,4.0,81,0.00,,,-99.99,,2013-03-31 04:32:00,
2013-03-30 21:42:00,50.0,44.0,29.98,North,0,0.0,4.0,81,0.00,,,-99.99,,2013-03-31 04:42:00,
2013-03-30 21:52:00,50.0,44.0,29.98,North,0,0.0,4.0,81,0.00,,,-99.99,,2013-03-31 04:52:00,
2013-03-30 22:22:00,49.0,44.0,30.00,North,0,0.0,6.0,83,0.00,,,-99.99,,2013-03-31 05:22:00,
2013-03-30 22:32:00,49.0,44.0,30.00,North,0,0.0,6.0,83,0.00,,,-99.99,,2013-03-31 05:32:00,
2013-03-30 22:42:00,49.0,44.0,30.00,North,0,0.0,6.0,83,0.00,,,-99.99,,2013-03-31 05:42:00,
2013-03-30 22:52:00,49.0,44.0,30.00,North,0,0.0,6.0,83,0.00,,,-99.99,,2013-03-31 05:52:00,
2013-03-30 23:22:00,47.0,42.0,30.01,East,90,1.0,6.0,84,0.00,,,-99.99,,2013-03-31 06:22:00,
2013-03-30 23:32:00,47.0,42.0,30.01,East,90,1.0,6.0,84,0.00,,,-99.99,,2013-03-31 06:32:00,
2013-03-30 23:42:00,47.0,42.0,30.01,East,90,1.0,6.0,84,0.00,,,-99.99,,2013-03-31 06:42:00,
2013-03-30 23:52:00,47.0,42.0,30.01,East,90,1.0,6.0,84,0.00,,,-99.99,,2013-03-31 06:52:00,